Accueil
METAR-TAF:

METAR-TAF

Aéroports :

Kivalina, Alaska, États-Unis

latitude: 67-44N, longitude: 164-33W, altitude: 4 m

Observation

Le bulletin a été fait il y a 57 minutes, à 22:53 UTC
Vent 5 kt de est
Température -20°C
Humidité 84%
Pression 1007 hPa
Visibilité: 16.1 km
Nuages fragmentés à une hauteur de 7500 ft

METAR: PAVL 222253Z AUTO 08005KT 10SM BKN075 M20/M22 A2975 RMK AO2 SLP074 T12001217 TSNO $

Heure: 14:50 (23:50 UTC)


TAF: absent

Observations et prévisions météorologiques de plus de 4000 aéroports (messages METAR et TAF).

Les stations disponibles sont représentées par des disques jaunes et rouges sur la carte.

Passer la souris dessus pour voir le nom de la station.

Cliquer dessus pour voir les observations et prévisions météorologiques.

Pour changer de carte: cliquez sur les boutons verts avec une croix noire pour zoomer, sur le bouton vert avec un tiret pour effectuer un zoom arrière, ou sur les flèches vertes pour les cartes adjacentes.


METAR-TAF: